EmailTwitter


Observations de surface / Québec / LFRN

Régions: Québec | Canada | États-Unis | Europe | France | UK | Elsewhere
Station
Affichage
Infos & localisation pour LFRN | Aide pour décoder les METARs

Observations prises le 2017-02-24 à 10H00 UTC à RENNES/ST. JACQU, FR (LFRN)

Température: 8.0 Celsius

Point de rosée: 3.0 Celsius

Humidité relative: 71%

Facteur vent: 5.

Vents: Ouest-nord-ouest à 19 km/h ou 10 noeuds.

Pression au niveau moyen de la mer: 102.00 kilopascals.

Observation METAR:

LFRN 241000Z AUTO 29010KT CAVOK 08/03 Q1020 NOSIG=